Observation data for Hereford on 08/01/2020      Previous  Date  Next       Current Mesonet Observations  Soil Data  Daily Summary Page  Observations in Plain Language
KHES 010500Z 00000KT 21/12 A3021 RMK A01 T02130120  RH  057%=      5-min Rain = 0
KHES 010505Z 00000KT 22/12 A3021 RMK A01 T02160120  RH  056%=      5-min Rain = 0
KHES 010510Z 07001KT 22/12 A3021 RMK A01 T02160121  RH  057%=      5-min Rain = 0
KHES 010515Z 07002KT 22/12 A3021 RMK A01 T02150119  RH  056%=      5-min Rain = 0
KHES 010520Z 09002KT 22/12 A3021 RMK A01 T02150123  RH  058%=      5-min Rain = 0
KHES 010525Z 09002KT 22/12 A3021 RMK A01 T02180123  RH  057%=      5-min Rain = 0
KHES 010530Z 09003KT 22/12 A3021 RMK A01 T02220123  RH  056%=      5-min Rain = 0
KHES 010535Z 09003KT 22/13 A3021 RMK A01 T02240126  RH  056%=      5-min Rain = 0
KHES 010540Z 09003KT 23/12 A3021 RMK A01 T02250119  RH  053%=      5-min Rain = 0
KHES 010545Z 10003KT 23/12 A302 RMK A01 T02280115  RH  051%=      5-min Rain = 0
KHES 010550Z 11004KT 23/11 A302 RMK A01 T02300110  RH  048%=      5-min Rain = 0
KHES 010555Z 11005KT 23/11 A3019 RMK A01 T02310110  RH  048%=      5-min Rain = 0
KHES 010600Z 10005KT 23/11 A3019 RMK A01 T02290111  RH  049%=      5-min Rain = 0
KHES 010605Z 10005KT 23/11 A3019 RMK A01 T02290107  RH  048%=      5-min Rain = 0
KHES 010610Z 10004KT 23/10 A3019 RMK A01 T02310103  RH  046%=      5-min Rain = 0
KHES 010615Z 13004KT 23/10 A3019 RMK A01 T02330100  RH  044%=      5-min Rain = 0
KHES 010620Z 15003KT 23/10 A3019 RMK A01 T02330101  RH  045%=      5-min Rain = 0
KHES 010625Z 17004KT 23/11 A3018 RMK A01 T02270105  RH  047%=      5-min Rain = 0
KHES 010630Z 21004KT 22/11 A3019 RMK A01 T02210107  RH  050%=      5-min Rain = 0
KHES 010635Z 27011KT 21/12 A302 RMK A01 T02140119  RH  057%=      5-min Rain = 0
KHES 010640Z 26010G16KT 22/11 A302 RMK A01 T02150114  RH  055%=      5-min Rain = 0
KHES 010645Z 27006KT 23/10 A3021 RMK A01 T02320103  RH  046%=      5-min Rain = 0
KHES 010650Z 28004KT 23/11 A3021 RMK A01 T02250109  RH  050%=      5-min Rain = 0
KHES 010655Z 28004KT 22/11 A3021 RMK A01 T02170111  RH  053%=      5-min Rain = 0
KHES 010700Z 26002KT 22/11 A3022 RMK A01 T02160108  RH  052%=      5-min Rain = 0
KHES 010705Z 28004KT 22/11 A3022 RMK A01 T02170108  RH  051%=      5-min Rain = 0
KHES 010710Z 28004KT 21/11 A3022 RMK A01 T02130109  RH  053%=      5-min Rain = 0
KHES 010715Z 28005KT 21/11 A3022 RMK A01 T02140108  RH  053%=      5-min Rain = 0
KHES 010720Z 29007KT 21/11 A3022 RMK A01 T02110109  RH  054%=      5-min Rain = 0
KHES 010725Z 27005KT 21/11 A3021 RMK A01 T02080112  RH  056%=      5-min Rain = 0
KHES 010730Z 27006KT 21/11 A3021 RMK A01 T02120112  RH  055%=      5-min Rain = 0
KHES 010735Z 30006KT 22/11 A302 RMK A01 T02190109  RH  051%=      5-min Rain = 0
KHES 010740Z 28005KT 22/11 A3019 RMK A01 T02190111  RH  052%=      5-min Rain = 0
KHES 010745Z 28006KT 21/12 A3019 RMK A01 T02110115  RH  056%=      5-min Rain = 0
KHES 010750Z 27005KT 21/12 A3019 RMK A01 T02060118  RH  059%=      5-min Rain = 0
KHES 010755Z 28005KT 20/12 A302 RMK A01 T02040120  RH  061%=      5-min Rain = 0
KHES 010800Z 28005KT 20/12 A302 RMK A01 T02040122  RH  062%=      5-min Rain = 0
KHES 010805Z 27006KT 20/12 A302 RMK A01 T02040124  RH  062%=      5-min Rain = 0
KHES 010810Z 25006KT 21/13 A3019 RMK A01 T02050126  RH  063%=      5-min Rain = 0
KHES 010815Z 26007KT 21/13 A3019 RMK A01 T02050126  RH  063%=      5-min Rain = 0
KHES 010820Z 27008KT 20/13 A3019 RMK A01 T02040126  RH  063%=      5-min Rain = 0
KHES 010825Z 26006KT 20/13 A3019 RMK A01 T02030126  RH  063%=      5-min Rain = 0
KHES 010830Z 27006KT 20/13 A3018 RMK A01 T02020126  RH  064%=      5-min Rain = 0
KHES 010835Z 25005KT 20/13 A3018 RMK A01 T02020126  RH  064%=      5-min Rain = 0
KHES 010840Z 21004KT 20/13 A3017 RMK A01 T02000126  RH  065%=      5-min Rain = 0
KHES 010845Z 24004KT 20/13 A3016 RMK A01 T02000127  RH  065%=      5-min Rain = 0
KHES 010850Z 24004KT 20/13 A3016 RMK A01 T01980128  RH  066%=      5-min Rain = 0
KHES 010855Z 17003KT 19/13 A3016 RMK A01 T01940128  RH  068%=      5-min Rain = 0
KHES 010900Z 16003KT 19/13 A3016 RMK A01 T01920130  RH  070%=      5-min Rain = 0
KHES 010905Z 17001KT 19/13 A3016 RMK A01 T01900130  RH  071%=      5-min Rain = 0
KHES 010910Z 18002KT 19/13 A3015 RMK A01 T01890130  RH  071%=      5-min Rain = 0
KHES 010915Z 19002KT 19/13 A3015 RMK A01 T01890130  RH  071%=      5-min Rain = 0
KHES 010920Z 18002KT 19/13 A3015 RMK A01 T01890129  RH  071%=      5-min Rain = 0
KHES 010925Z 18002KT 19/13 A3015 RMK A01 T01880130  RH  071%=      5-min Rain = 0
KHES 010930Z 16000KT 19/13 A3015 RMK A01 T01880130  RH  072%=      5-min Rain = 0
KHES 010935Z 00000KT 18/12 A3015 RMK A01 T01790122  RH  072%=      5-min Rain = 0
KHES 010940Z 32000KT 17/12 A3015 RMK A01 T01730122  RH  075%=      5-min Rain = 0
KHES 010945Z 30000KT 17/12 A3015 RMK A01 T01680122  RH  077%=      5-min Rain = 0
KHES 010950Z 29001KT 17/13 A3016 RMK A01 T01710126  RH  078%=      5-min Rain = 0
KHES 010955Z 31002KT 17/12 A3016 RMK A01 T01670123  RH  078%=      5-min Rain = 0
KHES 011000Z 31003KT 17/13 A3017 RMK A01 T01660125  RH  080%=      5-min Rain = 0
KHES 011005Z 31003KT 17/13 A3017 RMK A01 T01670127  RH  080%=      5-min Rain = 0
KHES 011010Z 31002KT 17/13 A3017 RMK A01 T01680128  RH  081%=      5-min Rain = 0
KHES 011015Z 32003KT 17/13 A3018 RMK A01 T01670128  RH  081%=      5-min Rain = 0
KHES 011020Z 33003KT 16/13 A3017 RMK A01 T01640130  RH  083%=      5-min Rain = 0
KHES 011025Z 32003KT 16/13 A3017 RMK A01 T01620130  RH  084%=      5-min Rain = 0
KHES 011030Z 31002KT 16/13 A3017 RMK A01 T01610129  RH  085%=      5-min Rain = 0
KHES 011035Z 30001KT 16/13 A3017 RMK A01 T01600129  RH  085%=      5-min Rain = 0
KHES 011040Z 34001KT 16/13 A3017 RMK A01 T01600130  RH  085%=      5-min Rain = 0
KHES 011045Z 00005KT 16/13 A3018 RMK A01 T01580129  RH  086%=      5-min Rain = 0
KHES 011050Z 02006KT 16/13 A3019 RMK A01 T01560131  RH  089%=      5-min Rain = 0
KHES 011055Z 03005KT 16/13 A3019 RMK A01 T01560132  RH  089%=      5-min Rain = 0
KHES 011100Z 05005KT 16/13 A3019 RMK A01 T01570131  RH  088%=      5-min Rain = 0
KHES 011105Z 06007KT 16/13 A3019 RMK A01 T01610132  RH  086%=      5-min Rain = 0
KHES 011110Z 06009KT 16/13 A3019 RMK A01 T01640132  RH  084%=      5-min Rain = 0
KHES 011115Z 07009KT 17/13 A3019 RMK A01 T01690130  RH  081%=      5-min Rain = 0
KHES 011120Z 07006KT 17/13 A3019 RMK A01 T01730129  RH  078%=      5-min Rain = 0
KHES 011125Z 07007KT 17/13 A3019 RMK A01 T01730128  RH  078%=      5-min Rain = 0
KHES 011130Z 08006KT 18/13 A3019 RMK A01 T01750127  RH  076%=      5-min Rain = 0
KHES 011135Z 08005KT 18/13 A3019 RMK A01 T01750125  RH  075%=      5-min Rain = 0
KHES 011140Z 10004KT 17/12 A3019 RMK A01 T01740124  RH  075%=      5-min Rain = 0
KHES 011145Z 10005KT 18/12 A3019 RMK A01 T01750123  RH  074%=      5-min Rain = 0
KHES 011150Z 11006KT 18/12 A3018 RMK A01 T01780119  RH  071%=      5-min Rain = 0
KHES 011155Z 12005KT 18/12 A3018 RMK A01 T01810116  RH  068%=      5-min Rain = 0
KHES 011200Z 12004KT 18/12 A3018 RMK A01 T01810115  RH  068%=      5-min Rain = 0
KHES 011205Z 12004KT 18/11 A3019 RMK A01 T01810114  RH  067%=      5-min Rain = 0
KHES 011210Z 13005KT 18/11 A3019 RMK A01 T01810114  RH  067%=      5-min Rain = 0
KHES 011215Z 16004KT 18/11 A3019 RMK A01 T01800114  RH  068%=      5-min Rain = 0
KHES 011220Z 15003KT 18/11 A3019 RMK A01 T01780114  RH  069%=      5-min Rain = 0
KHES 011225Z 16004KT 18/12 A3019 RMK A01 T01780116  RH  069%=      5-min Rain = 0
KHES 011230Z 17004KT 18/12 A3019 RMK A01 T01760118  RH  071%=      5-min Rain = 0
KHES 011235Z 20003KT 18/12 A3019 RMK A01 T01770119  RH  071%=      5-min Rain = 0
KHES 011240Z 27005KT 18/12 A302 RMK A01 T01760121  RH  073%=      5-min Rain = 0
KHES 011245Z 25005KT 18/12 A302 RMK A01 T01750122  RH  074%=      5-min Rain = 0
KHES 011250Z 23004KT 18/12 A302 RMK A01 T01770123  RH  074%=      5-min Rain = 0
KHES 011255Z 24004KT 18/12 A302 RMK A01 T01810123  RH  072%=      5-min Rain = 0
KHES 011300Z 25005KT 19/12 A302 RMK A01 T01850122  RH  069%=      5-min Rain = 0
KHES 011305Z 24005KT 19/12 A302 RMK A01 T01880121  RH  068%=      5-min Rain = 0
KHES 011310Z 24005KT 19/12 A302 RMK A01 T01910120  RH  066%=      5-min Rain = 0
KHES 011315Z 24004KT 20/12 A302 RMK A01 T01950120  RH  064%=      5-min Rain = 0
KHES 011320Z 23005KT 20/12 A302 RMK A01 T01980119  RH  063%=      5-min Rain = 0
KHES 011325Z 23006KT 20/12 A302 RMK A01 T01990122  RH  063%=      5-min Rain = 0
KHES 011330Z 23005KT 20/12 A302 RMK A01 T02010123  RH  063%=      5-min Rain = 0
KHES 011335Z 23005KT 20/12 A302 RMK A01 T02040121  RH  061%=      5-min Rain = 0
KHES 011340Z 22005KT 21/12 A302 RMK A01 T02060119  RH  060%=      5-min Rain = 0
KHES 011345Z 21004KT 21/12 A302 RMK A01 T02090123  RH  060%=      5-min Rain = 0
KHES 011350Z 21004KT 21/13 A302 RMK A01 T02090126  RH  061%=      5-min Rain = 0
KHES 011355Z 21004KT 21/13 A302 RMK A01 T02120128  RH  061%=      5-min Rain = 0
KHES 011400Z 22004KT 22/13 A302 RMK A01 T02160127  RH  059%=      5-min Rain = 0
KHES 011405Z 22005KT 22/13 A302 RMK A01 T02190129  RH  059%=      5-min Rain = 0
KHES 011410Z 22005KT 22/13 A302 RMK A01 T02230128  RH  057%=      5-min Rain = 0
KHES 011415Z 22005KT 23/13 A302 RMK A01 T02260127  RH  056%=      5-min Rain = 0
KHES 011420Z 21004KT 23/13 A302 RMK A01 T02280127  RH  055%=      5-min Rain = 0
KHES 011425Z 22004KT 23/12 A302 RMK A01 T02330124  RH  052%=      5-min Rain = 0
KHES 011430Z 22004KT 24/12 A302 RMK A01 T02350123  RH  051%=      5-min Rain = 0
KHES 011435Z 22003KT 24/12 A302 RMK A01 T02360121  RH  050%=      5-min Rain = 0
KHES 011440Z 21003KT 24/12 A302 RMK A01 T02390121  RH  049%=      5-min Rain = 0
KHES 011445Z 23003KT 24/12 A302 RMK A01 T02430118  RH  047%=      5-min Rain = 0
KHES 011450Z 23003KT 24/12 A302 RMK A01 T02430118  RH  047%=      5-min Rain = 0
KHES 011455Z 24005KT 25/12 A302 RMK A01 T02450119  RH  047%=      5-min Rain = 0
KHES 011500Z 26005KT 25/12 A302 RMK A01 T02490117  RH  045%=      5-min Rain = 0
KHES 011505Z 28005KT 25/12 A302 RMK A01 T02500116  RH  045%=      5-min Rain = 0
KHES 011510Z 28006KT 25/12 A302 RMK A01 T02510117  RH  045%=      5-min Rain = 0
KHES 011515Z 27007KT 25/12 A302 RMK A01 T02540118  RH  044%=      5-min Rain = 0
KHES 011520Z 28006KT 26/12 A302 RMK A01 T02560121  RH  045%=      5-min Rain = 0
KHES 011525Z 27007KT 26/12 A3019 RMK A01 T02570119  RH  044%=      5-min Rain = 0
KHES 011530Z 26006KT 26/12 A3019 RMK A01 T02590121  RH  044%=      5-min Rain = 0
KHES 011535Z 26005KT 26/12 A302 RMK A01 T02600118  RH  043%=      5-min Rain = 0
KHES 011540Z 26005KT 26/12 A302 RMK A01 T02590116  RH  042%=      5-min Rain = 0
KHES 011545Z 25006G11KT 26/12 A302 RMK A01 T02590119  RH  043%=      5-min Rain = 0
KHES 011550Z 25005KT 26/12 A302 RMK A01 T02600115  RH  042%=      5-min Rain = 0
KHES 011555Z 26006KT 26/12 A302 RMK A01 T02630115  RH  041%=      5-min Rain = 0
KHES 011600Z 28005G10KT 26/12 A302 RMK A01 T02630118  RH  042%=      5-min Rain = 0
KHES 011605Z 26007KT 27/12 A302 RMK A01 T02650119  RH  042%=      5-min Rain = 0
KHES 011610Z 27005KT 26/12 A302 RMK A01 T02640119  RH  042%=      5-min Rain = 0
KHES 011615Z 28005G10KT 27/12 A302 RMK A01 T02660121  RH  042%=      5-min Rain = 0
KHES 011620Z 29005KT 27/12 A302 RMK A01 T02690124  RH  042%=      5-min Rain = 0
KHES 011625Z 27008KT 27/12 A302 RMK A01 T02710121  RH  041%=      5-min Rain = 0
KHES 011630Z 28006KT 27/12 A302 RMK A01 T02740121  RH  040%=      5-min Rain = 0
KHES 011635Z 28007KT 27/12 A302 RMK A01 T02730121  RH  041%=      5-min Rain = 0
KHES 011640Z 29007KT 27/12 A3019 RMK A01 T02740122  RH  041%=      5-min Rain = 0
KHES 011645Z 32006KT 28/12 A3019 RMK A01 T02750124  RH  041%=      5-min Rain = 0
KHES 011650Z 28005KT 28/12 A3019 RMK A01 T02780123  RH  040%=      5-min Rain = 0
KHES 011655Z 30006KT 28/13 A3019 RMK A01 T02790125  RH  040%=      5-min Rain = 0
KHES 011700Z 32005KT 28/13 A3019 RMK A01 T02810125  RH  039%=      5-min Rain = 0
KHES 011705Z 31004G10KT 28/12 A3019 RMK A01 T02830124  RH  039%=      5-min Rain = 0
KHES 011710Z 32005G11KT 29/13 A3019 RMK A01 T02860125  RH  038%=      5-min Rain = 0
KHES 011715Z 33007KT 29/13 A3019 RMK A01 T02900127  RH  038%=      5-min Rain = 0
KHES 011720Z 32003KT 29/13 A3019 RMK A01 T02930125  RH  037%=      5-min Rain = 0
KHES 011725Z 28004KT 29/12 A3019 RMK A01 T02880122  RH  037%=      5-min Rain = 0
KHES 011730Z 29005KT 29/13 A3019 RMK A01 T02900127  RH  038%=      5-min Rain = 0
KHES 011735Z 34005KT 30/13 A3018 RMK A01 T02960129  RH  037%=      5-min Rain = 0
KHES 011740Z 00004G9KT 30/13 A3018 RMK A01 T02970127  RH  037%=      5-min Rain = 0
KHES 011745Z 35005KT 30/13 A3018 RMK A01 T02960126  RH  036%=      5-min Rain = 0
KHES 011750Z 34009G17KT 30/13 A3018 RMK A01 T03000128  RH  036%=      5-min Rain = 0
KHES 011755Z 36007KT 30/12 A3018 RMK A01 T03000123  RH  035%=      5-min Rain = 0
KHES 011800Z 00002KT 30/12 A3018 RMK A01 T02960122  RH  036%=      5-min Rain = 0
KHES 011805Z 35003KT 30/12 A3018 RMK A01 T03040124  RH  034%=      5-min Rain = 0
KHES 011810Z 04006G11KT 31/12 A3018 RMK A01 T03060122  RH  034%=      5-min Rain = 0
KHES 011815Z 02009KT 30/12 A3018 RMK A01 T03030124  RH  035%=      5-min Rain = 0
KHES 011820Z 01004KT 30/12 A3018 RMK A01 T03000120  RH  034%=      5-min Rain = 0
KHES 011825Z 00007G12KT 30/12 A3017 RMK A01 T03040124  RH  034%=      5-min Rain = 0
KHES 011830Z 36006KT 30/12 A3017 RMK A01 T03020117  RH  033%=      5-min Rain = 0
KHES 011835Z 01007KT 31/12 A3017 RMK A01 T03050124  RH  034%=      5-min Rain = 0
KHES 011840Z 01008G13KT 31/13 A3017 RMK A01 T03070128  RH  035%=      5-min Rain = 0
KHES 011845Z 01008KT 31/13 A3017 RMK A01 T03110127  RH  034%=      5-min Rain = 0
KHES 011850Z 35007G12KT 31/12 A3017 RMK A01 T03100124  RH  033%=      5-min Rain = 0
KHES 011855Z 00009KT 31/12 A3017 RMK A01 T03120120  RH  032%=      5-min Rain = 0
KHES 011900Z 04006KT 31/12 A3017 RMK A01 T03100124  RH  033%=      5-min Rain = 0
KHES 011905Z 01008G14KT 31/12 A3017 RMK A01 T03130124  RH  033%=      5-min Rain = 0
KHES 011910Z 00005G12KT 31/12 A3017 RMK A01 T03090123  RH  033%=      5-min Rain = 0
KHES 011915Z 34009G14KT 31/13 A3016 RMK A01 T03100129  RH  034%=      5-min Rain = 0
KHES 011920Z 34007G12KT 31/13 A3016 RMK A01 T03120129  RH  034%=      5-min Rain = 0
KHES 011925Z 01009KT 32/12 A3016 RMK A01 T03150121  RH  032%=      5-min Rain = 0
KHES 011930Z 00006KT 31/12 A3016 RMK A01 T03100123  RH  033%=      5-min Rain = 0
KHES 011935Z 36007KT 32/13 A3016 RMK A01 T03160131  RH  034%=      5-min Rain = 0
KHES 011940Z 01010KT 32/13 A3016 RMK A01 T03180126  RH  032%=      5-min Rain = 0
KHES 011945Z 35007KT 31/12 A3016 RMK A01 T03120120  RH  032%=      5-min Rain = 0
KHES 011950Z 34009KT 32/12 A3016 RMK A01 T03150120  RH  031%=      5-min Rain = 0
KHES 011955Z 35006KT 32/12 A3016 RMK A01 T03170119  RH  031%=      5-min Rain = 0
KHES 012000Z 01009G15KT 32/12 A3016 RMK A01 T03200116  RH  030%=      5-min Rain = 0
KHES 012005Z 35009G16KT 32/11 A3016 RMK A01 T03170109  RH  029%=      5-min Rain = 0
KHES 012010Z 34010G17KT 32/11 A3015 RMK A01 T03190110  RH  029%=      5-min Rain = 0
KHES 012015Z 36011KT 32/11 A3016 RMK A01 T03210111  RH  029%=      5-min Rain = 0
KHES 012020Z 01008KT 32/11 A3015 RMK A01 T03180108  RH  028%=      5-min Rain = 0
KHES 012025Z 36009G15KT 31/11 A3015 RMK A01 T03080108  RH  030%=      5-min Rain = 0
KHES 012030Z 35010G15KT 32/10 A3015 RMK A01 T03160099  RH  027%=      5-min Rain = 0
KHES 012035Z 36009G17KT 32/10 A3015 RMK A01 T03150101  RH  028%=      5-min Rain = 0
KHES 012040Z 01008G13KT 31/10 A3015 RMK A01 T03130097  RH  027%=      5-min Rain = 0
KHES 012045Z 01010G16KT 32/10 A3015 RMK A01 T03170095  RH  026%=      5-min Rain = 0
KHES 012050Z 03007KT 32/09 A3015 RMK A01 T03190089  RH  025%=      5-min Rain = 0
KHES 012055Z 01010G17KT 33/08 A3015 RMK A01 T03260078  RH  022%=      5-min Rain = 0
KHES 012100Z 01011G16KT 32/08 A3015 RMK A01 T03240082  RH  023%=      5-min Rain = 0
KHES 012105Z 00010G16KT 33/09 A3014 RMK A01 T03250086  RH  024%=      5-min Rain = 0
KHES 012110Z 02007KT 32/08 A3014 RMK A01 T03220084  RH  024%=      5-min Rain = 0
KHES 012115Z 35008G15KT 32/09 A3014 RMK A01 T03230087  RH  024%=      5-min Rain = 0
KHES 012120Z 35008KT 32/09 A3014 RMK A01 T03230092  RH  025%=      5-min Rain = 0
KHES 012125Z 35010G15KT 32/10 A3013 RMK A01 T03170097  RH  027%=      5-min Rain = 0
KHES 012130Z 36009G15KT 32/10 A3013 RMK A01 T03230100  RH  026%=      5-min Rain = 0
KHES 012135Z 00010G15KT 32/10 A3013 RMK A01 T03230102  RH  027%=      5-min Rain = 0
KHES 012140Z 03007KT 32/10 A3013 RMK A01 T03240101  RH  026%=      5-min Rain = 0
KHES 012145Z 02008KT 33/10 A3013 RMK A01 T03250098  RH  026%=      5-min Rain = 0
KHES 012150Z 35008KT 32/10 A3013 RMK A01 T03230095  RH  025%=      5-min Rain = 0
KHES 012155Z 01010KT 33/10 A3013 RMK A01 T03280104  RH  026%=      5-min Rain = 0
KHES 012200Z 01008KT 33/10 A3013 RMK A01 T03280098  RH  025%=      5-min Rain = 0
KHES 012205Z 35007G12KT 32/09 A3013 RMK A01 T03230093  RH  025%=      5-min Rain = 0
KHES 012210Z 02011KT 32/10 A3013 RMK A01 T03230101  RH  026%=      5-min Rain = 0
KHES 012215Z 01012G17KT 32/10 A3013 RMK A01 T03230099  RH  026%=      5-min Rain = 0
KHES 012220Z 03008KT 32/09 A3013 RMK A01 T03210094  RH  026%=      5-min Rain = 0
KHES 012225Z 02005G10KT 32/09 A3012 RMK A01 T03210092  RH  025%=      5-min Rain = 0
KHES 012230Z 01009KT 32/10 A3012 RMK A01 T03230095  RH  025%=      5-min Rain = 0
KHES 012235Z 01009G16KT 32/09 A3012 RMK A01 T03240088  RH  024%=      5-min Rain = 0
KHES 012240Z 01009G14KT 33/08 A3012 RMK A01 T03260078  RH  022%=      5-min Rain = 0
KHES 012245Z 36011KT 32/07 A3012 RMK A01 T03230068  RH  021%=      5-min Rain = 0
KHES 012250Z 35009KT 32/07 A3012 RMK A01 T03220072  RH  022%=      5-min Rain = 0
KHES 012255Z 35010KT 32/08 A3012 RMK A01 T03210078  RH  023%=      5-min Rain = 0
KHES 012300Z 02010KT 32/08 A3012 RMK A01 T03220078  RH  023%=      5-min Rain = 0
KHES 012305Z 02007KT 32/08 A3012 RMK A01 T03200076  RH  023%=      5-min Rain = 0
KHES 012310Z 04006KT 32/08 A3011 RMK A01 T03200082  RH  024%=      5-min Rain = 0
KHES 012315Z 04011KT 32/09 A3011 RMK A01 T03210094  RH  025%=      5-min Rain = 0
KHES 012320Z 02012KT 32/09 A3011 RMK A01 T03190094  RH  026%=      5-min Rain = 0
KHES 012325Z 02011KT 32/09 A3011 RMK A01 T03180089  RH  025%=      5-min Rain = 0
KHES 012330Z 03009KT 32/08 A3011 RMK A01 T03190084  RH  024%=      5-min Rain = 0
KHES 012335Z 03008KT 32/08 A3011 RMK A01 T03170080  RH  024%=      5-min Rain = 0
KHES 012340Z 03009KT 32/09 A301 RMK A01 T03200086  RH  024%=      5-min Rain = 0
KHES 012345Z 04009KT 32/08 A301 RMK A01 T03170079  RH  023%=      5-min Rain = 0
KHES 012350Z 02009KT 32/08 A301 RMK A01 T03170081  RH  024%=      5-min Rain = 0
KHES 012355Z 03008G14KT 32/08 A301 RMK A01 T03160079  RH  024%=      5-min Rain = 0
KHES 020000Z 04010KT 32/07 A301 RMK A01 T03150066  RH  022%=      5-min Rain = 0
KHES 020005Z 04008G13KT 32/07 A301 RMK A01 T03150068  RH  022%=      5-min Rain = 0
KHES 020010Z 04009KT 31/07 A3011 RMK A01 T03130072  RH  023%=      5-min Rain = 0
KHES 020015Z 02009G14KT 31/07 A3011 RMK A01 T03130070  RH  023%=      5-min Rain = 0
KHES 020020Z 01009KT 31/07 A3011 RMK A01 T03120073  RH  023%=      5-min Rain = 0
KHES 020025Z 01009KT 31/08 A3011 RMK A01 T03100075  RH  024%=      5-min Rain = 0
KHES 020030Z 03008KT 31/08 A3011 RMK A01 T03100078  RH  024%=      5-min Rain = 0
KHES 020035Z 05007KT 31/08 A3012 RMK A01 T03090076  RH  024%=      5-min Rain = 0
KHES 020040Z 04007KT 31/08 A3012 RMK A01 T03080077  RH  024%=      5-min Rain = 0
KHES 020045Z 03008KT 31/08 A3012 RMK A01 T03060076  RH  024%=      5-min Rain = 0
KHES 020050Z 04008KT 30/08 A3012 RMK A01 T03020081  RH  026%=      5-min Rain = 0
KHES 020055Z 03008KT 30/08 A3012 RMK A01 T03010079  RH  026%=      5-min Rain = 0
KHES 020100Z 03007KT 30/08 A3012 RMK A01 T03000078  RH  026%=      5-min Rain = 0
KHES 020105Z 03008KT 30/08 A3012 RMK A01 T02980076  RH  025%=      5-min Rain = 0
KHES 020110Z 03008KT 30/08 A3012 RMK A01 T02950075  RH  026%=      5-min Rain = 0
KHES 020115Z 04007KT 29/08 A3012 RMK A01 T02930075  RH  026%=      5-min Rain = 0
KHES 020120Z 04006KT 29/08 A3012 RMK A01 T02890076  RH  027%=      5-min Rain = 0
KHES 020125Z 04007KT 28/07 A3012 RMK A01 T02840074  RH  027%=      5-min Rain = 0
KHES 020130Z 05006KT 28/07 A3012 RMK A01 T02800074  RH  028%=      5-min Rain = 0
KHES 020135Z 04006KT 28/07 A3012 RMK A01 T02770073  RH  028%=      5-min Rain = 0
KHES 020140Z 03005KT 28/07 A3013 RMK A01 T02750071  RH  028%=      5-min Rain = 0
KHES 020145Z 03005KT 27/08 A3013 RMK A01 T02670078  RH  031%=      5-min Rain = 0
KHES 020150Z 04005KT 26/08 A3013 RMK A01 T02600079  RH  032%=      5-min Rain = 0
KHES 020155Z 04005KT 26/08 A3013 RMK A01 T02610080  RH  033%=      5-min Rain = 0
KHES 020200Z 03005KT 26/08 A3013 RMK A01 T02550084  RH  035%=      5-min Rain = 0
KHES 020205Z 03005KT 25/09 A3014 RMK A01 T02460092  RH  039%=      5-min Rain = 0
KHES 020210Z 04004KT 25/09 A3014 RMK A01 T02460090  RH  038%=      5-min Rain = 0
KHES 020215Z 05004KT 25/09 A3014 RMK A01 T02450090  RH  038%=      5-min Rain = 0
KHES 020220Z 04004KT 25/09 A3014 RMK A01 T02480085  RH  037%=      5-min Rain = 0
KHES 020225Z 04004KT 25/09 A3014 RMK A01 T02490085  RH  036%=      5-min Rain = 0
KHES 020230Z 04003KT 25/09 A3014 RMK A01 T02460087  RH  037%=      5-min Rain = 0
KHES 020235Z 04004KT 24/09 A3014 RMK A01 T02430088  RH  038%=      5-min Rain = 0
KHES 020240Z 05003KT 24/09 A3014 RMK A01 T02430089  RH  039%=      5-min Rain = 0
KHES 020245Z 05003KT 24/09 A3014 RMK A01 T02390089  RH  039%=      5-min Rain = 0
KHES 020250Z 03003KT 24/09 A3015 RMK A01 T02390090  RH  040%=      5-min Rain = 0
KHES 020255Z 04004KT 24/09 A3015 RMK A01 T02370093  RH  041%=      5-min Rain = 0
KHES 020300Z 05004KT 23/09 A3015 RMK A01 T02340092  RH  042%=      5-min Rain = 0
KHES 020305Z 05004KT 24/09 A3015 RMK A01 T02370090  RH  040%=      5-min Rain = 0
KHES 020310Z 04003KT 24/09 A3015 RMK A01 T02360091  RH  041%=      5-min Rain = 0
KHES 020315Z 05002KT 23/09 A3016 RMK A01 T02290091  RH  042%=      5-min Rain = 0
KHES 020320Z 04003KT 23/09 A3016 RMK A01 T02270091  RH  043%=      5-min Rain = 0
KHES 020325Z 04003KT 23/09 A3016 RMK A01 T02290089  RH  042%=      5-min Rain = 0
KHES 020330Z 04003KT 23/09 A3016 RMK A01 T02270091  RH  043%=      5-min Rain = 0
KHES 020335Z 06003KT 22/10 A3016 RMK A01 T02160099  RH  049%=      5-min Rain = 0
KHES 020340Z 06004KT 22/10 A3016 RMK A01 T02150097  RH  048%=      5-min Rain = 0
KHES 020345Z 05004KT 22/10 A3016 RMK A01 T02220096  RH  046%=      5-min Rain = 0
KHES 020350Z 06003KT 22/10 A3016 RMK A01 T02220096  RH  046%=      5-min Rain = 0
KHES 020355Z 06003KT 22/10 A3016 RMK A01 T02220096  RH  046%=      5-min Rain = 0
KHES 020400Z 07003KT 22/09 A3016 RMK A01 T02200094  RH  046%=      5-min Rain = 0
KHES 020405Z 08003KT 23/09 A3017 RMK A01 T02250093  RH  044%=      5-min Rain = 0
KHES 020410Z 08003KT 23/09 A3017 RMK A01 T02290091  RH  043%=      5-min Rain = 0
KHES 020415Z 07004KT 23/09 A3017 RMK A01 T02290092  RH  043%=      5-min Rain = 0
KHES 020420Z 05003KT 22/10 A3017 RMK A01 T02190099  RH  048%=      5-min Rain = 0
KHES 020425Z 03002KT 20/10 A3018 RMK A01 T02030104  RH  055%=      5-min Rain = 0
KHES 020430Z 08002KT 20/10 A3018 RMK A01 T01990097  RH  054%=      5-min Rain = 0
KHES 020435Z 08002KT 20/10 A3018 RMK A01 T01970097  RH  054%=      5-min Rain = 0
KHES 020440Z 09003KT 20/10 A3018 RMK A01 T01990100  RH  055%=      5-min Rain = 0
KHES 020445Z 09004KT 21/10 A3018 RMK A01 T02070101  RH  052%=      5-min Rain = 0
KHES 020450Z 10004KT 22/10 A3018 RMK A01 T02160101  RH  049%=      5-min Rain = 0
KHES 020455Z 10003KT 22/10 A3018 RMK A01 T02230101  RH  047%=      5-min Rain = 0

Page generated in 0.0094 seconds.